sensor_id;sensor_type;location;lat;lon;timestamp;P1;durP1;ratioP1;P2;durP2;ratioP2
58238;SDS011;44037;55.638;37.356;2023-10-13T00:01:53;6.57;;;1.67;;
58238;SDS011;44037;55.638;37.356;2023-10-13T00:04:22;5.18;;;1.80;;
58238;SDS011;44037;55.638;37.356;2023-10-13T00:06:50;4.22;;;1.35;;
58238;SDS011;44037;55.638;37.356;2023-10-13T00:09:17;4.43;;;1.20;;
58238;SDS011;44037;55.638;37.356;2023-10-13T00:11:47;5.65;;;1.52;;
58238;SDS011;44037;55.638;37.356;2023-10-13T00:14:14;6.07;;;1.67;;
58238;SDS011;44037;55.638;37.356;2023-10-13T00:16:42;4.45;;;1.70;;
58238;SDS011;44037;55.638;37.356;2023-10-13T00:19:26;2.95;;;1.00;;
58238;SDS011;44037;55.638;37.356;2023-10-13T00:21:54;3.25;;;0.90;;
58238;SDS011;44037;55.638;37.356;2023-10-13T00:24:21;5.15;;;1.30;;
58238;SDS011;44037;55.638;37.356;2023-10-13T00:26:56;4.25;;;1.05;;
58238;SDS011;44037;55.638;37.356;2023-10-13T00:29:26;3.83;;;1.33;;
58238;SDS011;44037;55.638;37.356;2023-10-13T00:32:02;7.88;;;1.92;;
58238;SDS011;44037;55.638;37.356;2023-10-13T00:34:30;5.07;;;2.15;;
58238;SDS011;44037;55.638;37.356;2023-10-13T00:36:58;7.13;;;2.40;;
58238;SDS011;44037;55.638;37.356;2023-10-13T00:39:43;9.85;;;2.47;;
58238;SDS011;44037;55.638;37.356;2023-10-13T00:42:12;7.35;;;1.77;;
58238;SDS011;44037;55.638;37.356;2023-10-13T00:44:45;5.30;;;1.73;;
58238;SDS011;44037;55.638;37.356;2023-10-13T00:47:15;3.08;;;1.35;;
58238;SDS011;44037;55.638;37.356;2023-10-13T00:49:58;5.05;;;1.65;;
58238;SDS011;44037;55.638;37.356;2023-10-13T00:52:25;5.15;;;1.08;;
58238;SDS011;44037;55.638;37.356;2023-10-13T00:54:52;3.35;;;1.20;;
58238;SDS011;44037;55.638;37.356;2023-10-13T00:57:20;3.92;;;1.50;;
58238;SDS011;44037;55.638;37.356;2023-10-13T00:59:52;4.60;;;1.40;;
58238;SDS011;44037;55.638;37.356;2023-10-13T01:02:20;7.35;;;2.20;;
58238;SDS011;44037;55.638;37.356;2023-10-13T01:05:04;3.35;;;1.30;;
58238;SDS011;44037;55.638;37.356;2023-10-13T01:07:35;6.55;;;1.67;;
58238;SDS011;44037;55.638;37.356;2023-10-13T01:10:02;9.27;;;3.40;;
58238;SDS011;44037;55.638;37.356;2023-10-13T01:12:32;6.80;;;2.67;;
58238;SDS011;44037;55.638;37.356;2023-10-13T01:14:58;8.65;;;2.08;;
58238;SDS011;44037;55.638;37.356;2023-10-13T01:17:33;4.95;;;1.73;;
58238;SDS011;44037;55.638;37.356;2023-10-13T01:19:59;9.48;;;2.53;;
58238;SDS011;44037;55.638;37.356;2023-10-13T01:22:26;6.25;;;2.13;;
58238;SDS011;44037;55.638;37.356;2023-10-13T01:24:55;5.65;;;1.73;;
58238;SDS011;44037;55.638;37.356;2023-10-13T01:27:31;5.03;;;1.80;;
58238;SDS011;44037;55.638;37.356;2023-10-13T01:30:03;9.45;;;2.45;;
58238;SDS011;44037;55.638;37.356;2023-10-13T01:32:38;4.45;;;2.47;;
58238;SDS011;44037;55.638;37.356;2023-10-13T01:35:10;6.07;;;1.88;;
58238;SDS011;44037;55.638;37.356;2023-10-13T01:37:37;7.85;;;2.67;;
58238;SDS011;44037;55.638;37.356;2023-10-13T01:40:06;5.38;;;1.83;;
58238;SDS011;44037;55.638;37.356;2023-10-13T01:42:33;8.27;;;1.23;;
58238;SDS011;44037;55.638;37.356;2023-10-13T01:45:02;8.50;;;2.22;;
58238;SDS011;44037;55.638;37.356;2023-10-13T01:47:31;6.05;;;2.00;;
58238;SDS011;44037;55.638;37.356;2023-10-13T01:49:59;6.05;;;1.70;;
58238;SDS011;44037;55.638;37.356;2023-10-13T01:52:38;10.45;;;2.30;;
58238;SDS011;44037;55.638;37.356;2023-10-13T01:55:09;11.30;;;2.13;;
58238;SDS011;44037;55.638;37.356;2023-10-13T01:57:37;6.93;;;2.47;;
58238;SDS011;44037;55.638;37.356;2023-10-13T02:00:03;4.80;;;2.15;;
58238;SDS011;44037;55.638;37.356;2023-10-13T02:02:43;6.70;;;1.95;;
58238;SDS011;44037;55.638;37.356;2023-10-13T02:05:10;6.65;;;2.10;;
58238;SDS011;44037;55.638;37.356;2023-10-13T02:07:41;5.60;;;1.80;;
58238;SDS011;44037;55.638;37.356;2023-10-13T02:10:12;9.43;;;1.77;;
58238;SDS011;44037;55.638;37.356;2023-10-13T02:12:41;3.95;;;1.00;;
58238;SDS011;44037;55.638;37.356;2023-10-13T02:15:15;7.82;;;1.88;;
58238;SDS011;44037;55.638;37.356;2023-10-13T02:17:47;4.28;;;1.38;;
58238;SDS011;44037;55.638;37.356;2023-10-13T02:20:17;7.28;;;1.88;;
58238;SDS011;44037;55.638;37.356;2023-10-13T02:22:47;4.93;;;1.38;;
58238;SDS011;44037;55.638;37.356;2023-10-13T02:25:16;4.70;;;1.50;;
58238;SDS011;44037;55.638;37.356;2023-10-13T02:28:00;6.80;;;1.70;;
58238;SDS011;44037;55.638;37.356;2023-10-13T02:30:27;3.83;;;1.30;;
58238;SDS011;44037;55.638;37.356;2023-10-13T02:32:54;2.53;;;0.90;;
58238;SDS011;44037;55.638;37.356;2023-10-13T02:35:20;5.65;;;1.30;;
58238;SDS011;44037;55.638;37.356;2023-10-13T02:37:55;5.57;;;1.58;;
58238;SDS011;44037;55.638;37.356;2023-10-13T02:40:25;5.50;;;1.20;;
58238;SDS011;44037;55.638;37.356;2023-10-13T02:42:52;4.22;;;1.25;;
58238;SDS011;44037;55.638;37.356;2023-10-13T02:45:18;9.93;;;2.45;;
58238;SDS011;44037;55.638;37.356;2023-10-13T02:47:47;7.82;;;1.80;;
58238;SDS011;44037;55.638;37.356;2023-10-13T02:50:35;5.05;;;1.75;;
58238;SDS011;44037;55.638;37.356;2023-10-13T02:53:03;7.13;;;1.75;;
58238;SDS011;44037;55.638;37.356;2023-10-13T02:55:48;9.63;;;2.63;;
58238;SDS011;44037;55.638;37.356;2023-10-13T02:58:15;11.40;;;3.08;;
58238;SDS011;44037;55.638;37.356;2023-10-13T03:00:43;4.90;;;2.08;;
58238;SDS011;44037;55.638;37.356;2023-10-13T03:03:09;6.20;;;2.00;;
58238;SDS011;44037;55.638;37.356;2023-10-13T03:05:39;10.10;;;2.40;;
58238;SDS011;44037;55.638;37.356;2023-10-13T03:08:08;5.57;;;1.70;;
58238;SDS011;44037;55.638;37.356;2023-10-13T03:10:37;10.73;;;1.60;;
58238;SDS011;44037;55.638;37.356;2023-10-13T03:13:11;5.20;;;1.70;;
58238;SDS011;44037;55.638;37.356;2023-10-13T03:15:39;5.20;;;1.35;;
58238;SDS011;44037;55.638;37.356;2023-10-13T03:18:05;3.70;;;1.35;;
58238;SDS011;44037;55.638;37.356;2023-10-13T03:20:32;5.30;;;1.58;;
58238;SDS011;44037;55.638;37.356;2023-10-13T03:22:58;7.78;;;1.25;;
58238;SDS011;44037;55.638;37.356;2023-10-13T03:25:26;7.05;;;1.88;;
58238;SDS011;44037;55.638;37.356;2023-10-13T03:27:58;4.57;;;1.33;;
58238;SDS011;44037;55.638;37.356;2023-10-13T03:30:30;4.00;;;1.25;;
58238;SDS011;44037;55.638;37.356;2023-10-13T03:33:04;7.53;;;1.30;;
58238;SDS011;44037;55.638;37.356;2023-10-13T03:35:37;6.25;;;2.03;;
58238;SDS011;44037;55.638;37.356;2023-10-13T03:38:07;4.55;;;1.60;;
58238;SDS011;44037;55.638;37.356;2023-10-13T03:40:44;7.60;;;1.25;;
58238;SDS011;44037;55.638;37.356;2023-10-13T03:43:34;9.98;;;3.15;;
58238;SDS011;44037;55.638;37.356;2023-10-13T03:46:10;4.38;;;1.50;;
58238;SDS011;44037;55.638;37.356;2023-10-13T03:48:37;7.25;;;1.30;;
58238;SDS011;44037;55.638;37.356;2023-10-13T03:51:17;10.25;;;2.20;;
58238;SDS011;44037;55.638;37.356;2023-10-13T03:53:44;7.80;;;1.73;;
58238;SDS011;44037;55.638;37.356;2023-10-13T03:56:19;5.30;;;1.30;;
58238;SDS011;44037;55.638;37.356;2023-10-13T03:58:55;7.35;;;1.63;;
58238;SDS011;44037;55.638;37.356;2023-10-13T04:01:25;4.45;;;1.67;;
58238;SDS011;44037;55.638;37.356;2023-10-13T04:03:58;5.55;;;1.33;;
58238;SDS011;44037;55.638;37.356;2023-10-13T04:06:34;5.70;;;1.90;;
58238;SDS011;44037;55.638;37.356;2023-10-13T04:09:14;8.95;;;1.38;;
58238;SDS011;44037;55.638;37.356;2023-10-13T04:12:05;6.57;;;1.38;;
58238;SDS011;44037;55.638;37.356;2023-10-13T04:14:51;6.22;;;1.35;;
58238;SDS011;44037;55.638;37.356;2023-10-13T04:17:35;7.43;;;1.85;;
58238;SDS011;44037;55.638;37.356;2023-10-13T04:20:10;8.77;;;1.63;;
58238;SDS011;44037;55.638;37.356;2023-10-13T04:22:52;9.13;;;1.40;;
58238;SDS011;44037;55.638;37.356;2023-10-13T04:25:37;7.10;;;1.80;;
58238;SDS011;44037;55.638;37.356;2023-10-13T04:28:31;4.88;;;1.70;;
58238;SDS011;44037;55.638;37.356;2023-10-13T04:31:01;3.83;;;1.15;;
58238;SDS011;44037;55.638;37.356;2023-10-13T04:33:38;7.28;;;1.52;;
58238;SDS011;44037;55.638;37.356;2023-10-13T04:36:16;6.47;;;1.90;;
58238;SDS011;44037;55.638;37.356;2023-10-13T04:38:48;5.82;;;1.50;;
58238;SDS011;44037;55.638;37.356;2023-10-13T04:41:26;4.63;;;1.35;;
58238;SDS011;44037;55.638;37.356;2023-10-13T04:43:57;6.65;;;1.83;;
58238;SDS011;44037;55.638;37.356;2023-10-13T04:46:31;7.38;;;1.50;;
58238;SDS011;44037;55.638;37.356;2023-10-13T04:49:33;7.03;;;1.75;;
58238;SDS011;44037;55.638;37.356;2023-10-13T04:52:17;6.20;;;1.58;;
58238;SDS011;44037;55.638;37.356;2023-10-13T04:55:03;11.82;;;1.88;;
58238;SDS011;44037;55.638;37.356;2023-10-13T04:57:58;5.70;;;1.27;;
58238;SDS011;44037;55.638;37.356;2023-10-13T05:00:36;6.68;;;1.60;;
58238;SDS011;44037;55.638;37.356;2023-10-13T05:03:22;4.80;;;1.42;;
58238;SDS011;44037;55.638;37.356;2023-10-13T05:06:19;7.10;;;1.98;;
58238;SDS011;44037;55.638;37.356;2023-10-13T05:09:03;7.57;;;1.67;;
58238;SDS011;44037;55.638;37.356;2023-10-13T05:11:48;3.80;;;1.63;;
58238;SDS011;44037;55.638;37.356;2023-10-13T05:14:32;7.60;;;1.90;;
58238;SDS011;44037;55.638;37.356;2023-10-13T05:17:16;7.53;;;2.30;;
58238;SDS011;44037;55.638;37.356;2023-10-13T05:20:02;5.30;;;1.90;;
58238;SDS011;44037;55.638;37.356;2023-10-13T05:22:47;5.03;;;1.90;;
58238;SDS011;44037;55.638;37.356;2023-10-13T05:25:34;7.88;;;1.58;;
58238;SDS011;44037;55.638;37.356;2023-10-13T05:28:19;5.97;;;1.50;;
58238;SDS011;44037;55.638;37.356;2023-10-13T05:31:03;4.47;;;1.48;;
58238;SDS011;44037;55.638;37.356;2023-10-13T05:33:48;4.38;;;1.15;;
58238;SDS011;44037;55.638;37.356;2023-10-13T05:36:34;7.90;;;1.77;;
58238;SDS011;44037;55.638;37.356;2023-10-13T05:39:18;4.72;;;1.33;;
58238;SDS011;44037;55.638;37.356;2023-10-13T05:42:02;6.10;;;1.50;;
58238;SDS011;44037;55.638;37.356;2023-10-13T05:44:47;8.95;;;1.63;;
58238;SDS011;44037;55.638;37.356;2023-10-13T05:47:42;5.80;;;1.48;;
58238;SDS011;44037;55.638;37.356;2023-10-13T05:50:26;4.90;;;1.60;;
58238;SDS011;44037;55.638;37.356;2023-10-13T05:53:16;7.22;;;2.13;;
58238;SDS011;44037;55.638;37.356;2023-10-13T05:56:06;9.65;;;1.85;;
58238;SDS011;44037;55.638;37.356;2023-10-13T05:58:51;6.90;;;1.48;;
58238;SDS011;44037;55.638;37.356;2023-10-13T06:01:35;4.35;;;1.35;;
58238;SDS011;44037;55.638;37.356;2023-10-13T06:04:20;9.23;;;3.30;;
58238;SDS011;44037;55.638;37.356;2023-10-13T06:07:04;4.47;;;1.42;;
58238;SDS011;44037;55.638;37.356;2023-10-13T06:09:50;5.80;;;1.02;;
58238;SDS011;44037;55.638;37.356;2023-10-13T06:12:34;6.03;;;1.20;;
58238;SDS011;44037;55.638;37.356;2023-10-13T06:15:18;7.85;;;1.20;;
58238;SDS011;44037;55.638;37.356;2023-10-13T06:18:03;4.50;;;1.30;;
58238;SDS011;44037;55.638;37.356;2023-10-13T06:20:47;5.13;;;1.20;;
58238;SDS011;44037;55.638;37.356;2023-10-13T06:23:32;4.40;;;1.23;;
58238;SDS011;44037;55.638;37.356;2023-10-13T06:26:18;5.05;;;1.05;;
58238;SDS011;44037;55.638;37.356;2023-10-13T06:29:02;4.60;;;1.20;;
58238;SDS011;44037;55.638;37.356;2023-10-13T06:31:33;5.20;;;0.95;;
58238;SDS011;44037;55.638;37.356;2023-10-13T06:34:00;3.30;;;0.70;;
58238;SDS011;44037;55.638;37.356;2023-10-13T06:36:28;5.82;;;0.88;;
58238;SDS011;44037;55.638;37.356;2023-10-13T06:38:55;4.25;;;1.13;;
58238;SDS011;44037;55.638;37.356;2023-10-13T06:41:44;4.57;;;1.00;;
58238;SDS011;44037;55.638;37.356;2023-10-13T06:44:11;4.10;;;0.80;;
58238;SDS011;44037;55.638;37.356;2023-10-13T06:46:42;5.05;;;1.15;;
58238;SDS011;44037;55.638;37.356;2023-10-13T06:49:09;5.30;;;0.95;;
58238;SDS011;44037;55.638;37.356;2023-10-13T06:51:38;3.63;;;0.80;;
58238;SDS011;44037;55.638;37.356;2023-10-13T06:54:06;5.53;;;1.23;;
58238;SDS011;44037;55.638;37.356;2023-10-13T06:56:45;5.57;;;1.20;;
58238;SDS011;44037;55.638;37.356;2023-10-13T06:59:16;5.00;;;0.98;;
58238;SDS011;44037;55.638;37.356;2023-10-13T07:01:43;3.50;;;0.98;;
58238;SDS011;44037;55.638;37.356;2023-10-13T07:04:13;4.43;;;0.90;;
58238;SDS011;44037;55.638;37.356;2023-10-13T07:06:41;2.13;;;1.00;;
58238;SDS011;44037;55.638;37.356;2023-10-13T07:09:13;5.53;;;1.30;;
58238;SDS011;44037;55.638;37.356;2023-10-13T07:12:04;4.68;;;1.00;;
58238;SDS011;44037;55.638;37.356;2023-10-13T07:14:33;4.93;;;1.05;;
58238;SDS011;44037;55.638;37.356;2023-10-13T07:17:01;3.92;;;0.93;;
58238;SDS011;44037;55.638;37.356;2023-10-13T07:19:30;3.45;;;0.80;;
58238;SDS011;44037;55.638;37.356;2023-10-13T07:21:59;6.38;;;1.20;;
58238;SDS011;44037;55.638;37.356;2023-10-13T07:24:44;6.03;;;0.90;;
58238;SDS011;44037;55.638;37.356;2023-10-13T07:27:18;2.97;;;0.80;;
58238;SDS011;44037;55.638;37.356;2023-10-13T07:29:54;1.33;;;0.70;;
58238;SDS011;44037;55.638;37.356;2023-10-13T07:32:39;2.93;;;0.77;;
58238;SDS011;44037;55.638;37.356;2023-10-13T07:35:11;2.90;;;0.63;;
58238;SDS011;44037;55.638;37.356;2023-10-13T07:37:42;2.72;;;0.80;;
58238;SDS011;44037;55.638;37.356;2023-10-13T07:43:18;3.20;;;0.80;;
58238;SDS011;44037;55.638;37.356;2023-10-13T07:45:59;1.92;;;0.70;;
58238;SDS011;44037;55.638;37.356;2023-10-13T07:48:32;4.30;;;0.73;;
58238;SDS011;44037;55.638;37.356;2023-10-13T07:50:59;2.42;;;0.70;;
58238;SDS011;44037;55.638;37.356;2023-10-13T07:53:29;3.53;;;0.80;;
58238;SDS011;44037;55.638;37.356;2023-10-13T07:58:35;3.75;;;1.00;;
58238;SDS011;44037;55.638;37.356;2023-10-13T08:01:13;1.67;;;0.60;;
58238;SDS011;44037;55.638;37.356;2023-10-13T08:03:44;2.47;;;0.70;;
58238;SDS011;44037;55.638;37.356;2023-10-13T08:06:12;8.13;;;0.73;;
58238;SDS011;44037;55.638;37.356;2023-10-13T08:08:47;6.00;;;1.10;;
58238;SDS011;44037;55.638;37.356;2023-10-13T08:11:19;1.80;;;0.70;;
58238;SDS011;44037;55.638;37.356;2023-10-13T08:13:58;3.60;;;0.90;;
58238;SDS011;44037;55.638;37.356;2023-10-13T08:16:36;5.07;;;1.10;;
58238;SDS011;44037;55.638;37.356;2023-10-13T08:19:18;1.85;;;0.60;;
58238;SDS011;44037;55.638;37.356;2023-10-13T08:21:54;2.73;;;0.70;;
58238;SDS011;44037;55.638;37.356;2023-10-13T08:24:47;2.38;;;0.70;;
58238;SDS011;44037;55.638;37.356;2023-10-13T08:27:26;1.92;;;0.50;;
58238;SDS011;44037;55.638;37.356;2023-10-13T08:30:04;3.15;;;0.80;;
58238;SDS011;44037;55.638;37.356;2023-10-13T08:32:49;2.30;;;0.70;;
58238;SDS011;44037;55.638;37.356;2023-10-13T08:35:22;1.33;;;0.50;;
58238;SDS011;44037;55.638;37.356;2023-10-13T08:37:51;2.08;;;0.55;;
58238;SDS011;44037;55.638;37.356;2023-10-13T08:40:43;1.38;;;0.47;;
58238;SDS011;44037;55.638;37.356;2023-10-13T08:43:36;3.83;;;1.02;;
58238;SDS011;44037;55.638;37.356;2023-10-13T08:46:20;7.32;;;2.92;;
58238;SDS011;44037;55.638;37.356;2023-10-13T08:48:55;2.63;;;0.60;;
58238;SDS011;44037;55.638;37.356;2023-10-13T08:51:34;3.20;;;1.38;;
58238;SDS011;44037;55.638;37.356;2023-10-13T08:54:11;2.72;;;0.70;;
58238;SDS011;44037;55.638;37.356;2023-10-13T08:56:46;2.40;;;0.98;;
58238;SDS011;44037;55.638;37.356;2023-10-13T08:59:19;3.38;;;1.00;;
58238;SDS011;44037;55.638;37.356;2023-10-13T09:02:00;2.80;;;0.80;;
58238;SDS011;44037;55.638;37.356;2023-10-13T09:04:42;2.35;;;0.98;;
58238;SDS011;44037;55.638;37.356;2023-10-13T09:07:10;1.83;;;0.70;;
58238;SDS011;44037;55.638;37.356;2023-10-13T09:09:47;2.22;;;0.70;;
58238;SDS011;44037;55.638;37.356;2023-10-13T09:12:37;3.15;;;0.75;;
58238;SDS011;44037;55.638;37.356;2023-10-13T09:15:06;1.73;;;0.50;;
58238;SDS011;44037;55.638;37.356;2023-10-13T09:17:47;4.03;;;1.48;;
58238;SDS011;44037;55.638;37.356;2023-10-13T09:20:27;3.83;;;0.63;;
58238;SDS011;44037;55.638;37.356;2023-10-13T09:23:08;1.48;;;0.80;;
58238;SDS011;44037;55.638;37.356;2023-10-13T09:25:38;3.95;;;0.50;;
58238;SDS011;44037;55.638;37.356;2023-10-13T09:28:20;4.00;;;0.80;;
58238;SDS011;44037;55.638;37.356;2023-10-13T09:30:48;2.15;;;0.60;;
58238;SDS011;44037;55.638;37.356;2023-10-13T09:33:23;3.88;;;0.55;;
58238;SDS011;44037;55.638;37.356;2023-10-13T09:35:58;2.33;;;0.63;;
58238;SDS011;44037;55.638;37.356;2023-10-13T09:38:31;3.45;;;0.88;;
58238;SDS011;44037;55.638;37.356;2023-10-13T09:40:58;2.83;;;0.77;;
58238;SDS011;44037;55.638;37.356;2023-10-13T09:43:27;3.95;;;0.88;;
58238;SDS011;44037;55.638;37.356;2023-10-13T09:45:58;4.75;;;0.70;;
58238;SDS011;44037;55.638;37.356;2023-10-13T09:48:32;4.18;;;0.77;;
58238;SDS011;44037;55.638;37.356;2023-10-13T09:51:01;3.03;;;0.50;;
58238;SDS011;44037;55.638;37.356;2023-10-13T09:53:30;2.58;;;0.70;;
58238;SDS011;44037;55.638;37.356;2023-10-13T09:56:00;3.92;;;0.50;;
58238;SDS011;44037;55.638;37.356;2023-10-13T09:58:42;2.08;;;0.63;;
58238;SDS011;44037;55.638;37.356;2023-10-13T10:01:17;5.60;;;0.77;;
58238;SDS011;44037;55.638;37.356;2023-10-13T10:04:07;4.78;;;1.05;;
58238;SDS011;44037;55.638;37.356;2023-10-13T10:06:50;3.22;;;1.00;;
58238;SDS011;44037;55.638;37.356;2023-10-13T10:09:17;3.35;;;0.65;;
58238;SDS011;44037;55.638;37.356;2023-10-13T10:12:00;5.78;;;1.10;;
58238;SDS011;44037;55.638;37.356;2023-10-13T10:14:44;2.97;;;0.70;;
58238;SDS011;44037;55.638;37.356;2023-10-13T10:17:24;6.55;;;2.13;;
58238;SDS011;44037;55.638;37.356;2023-10-13T10:19:56;2.97;;;0.85;;
58238;SDS011;44037;55.638;37.356;2023-10-13T10:22:26;2.17;;;1.00;;
58238;SDS011;44037;55.638;37.356;2023-10-13T10:24:58;2.67;;;0.63;;
58238;SDS011;44037;55.638;37.356;2023-10-13T10:27:31;2.25;;;0.75;;
58238;SDS011;44037;55.638;37.356;2023-10-13T10:29:59;5.70;;;0.95;;
58238;SDS011;44037;55.638;37.356;2023-10-13T10:32:33;3.45;;;0.70;;
58238;SDS011;44037;55.638;37.356;2023-10-13T10:35:06;3.15;;;0.75;;
58238;SDS011;44037;55.638;37.356;2023-10-13T10:37:40;1.85;;;0.73;;
58238;SDS011;44037;55.638;37.356;2023-10-13T10:40:12;4.55;;;0.80;;
58238;SDS011;44037;55.638;37.356;2023-10-13T10:42:58;4.55;;;0.80;;
58238;SDS011;44037;55.638;37.356;2023-10-13T10:45:26;2.72;;;0.70;;
58238;SDS011;44037;55.638;37.356;2023-10-13T10:47:58;2.97;;;1.10;;
58238;SDS011;44037;55.638;37.356;2023-10-13T10:50:27;3.95;;;0.90;;
58238;SDS011;44037;55.638;37.356;2023-10-13T10:53:01;2.10;;;0.70;;
58238;SDS011;44037;55.638;37.356;2023-10-13T10:55:34;2.13;;;0.70;;
58238;SDS011;44037;55.638;37.356;2023-10-13T10:58:02;3.95;;;0.63;;
58238;SDS011;44037;55.638;37.356;2023-10-13T11:00:31;3.17;;;1.00;;
58238;SDS011;44037;55.638;37.356;2023-10-13T11:03:11;4.75;;;0.77;;
58238;SDS011;44037;55.638;37.356;2023-10-13T11:05:46;1.30;;;0.50;;
58238;SDS011;44037;55.638;37.356;2023-10-13T11:08:21;1.85;;;0.68;;
58238;SDS011;44037;55.638;37.356;2023-10-13T11:10:57;4.15;;;0.60;;
58238;SDS011;44037;55.638;37.356;2023-10-13T11:13:26;2.80;;;0.63;;
58238;SDS011;44037;55.638;37.356;2023-10-13T11:15:56;3.60;;;0.60;;
58238;SDS011;44037;55.638;37.356;2023-10-13T11:18:28;3.33;;;0.90;;
58238;SDS011;44037;55.638;37.356;2023-10-13T11:21:00;3.10;;;0.70;;
58238;SDS011;44037;55.638;37.356;2023-10-13T11:23:32;3.45;;;1.05;;
58238;SDS011;44037;55.638;37.356;2023-10-13T11:26:02;3.78;;;0.80;;
58238;SDS011;44037;55.638;37.356;2023-10-13T11:28:30;2.33;;;0.70;;
58238;SDS011;44037;55.638;37.356;2023-10-13T11:31:00;5.15;;;0.90;;
58238;SDS011;44037;55.638;37.356;2023-10-13T11:36:09;4.43;;;0.98;;
58238;SDS011;44037;55.638;37.356;2023-10-13T11:38:47;4.82;;;0.82;;
58238;SDS011;44037;55.638;37.356;2023-10-13T11:41:16;3.47;;;0.98;;
58238;SDS011;44037;55.638;37.356;2023-10-13T11:43:45;3.25;;;0.95;;
58238;SDS011;44037;55.638;37.356;2023-10-13T11:46:27;2.30;;;0.90;;
58238;SDS011;44037;55.638;37.356;2023-10-13T11:49:12;6.25;;;1.00;;
58238;SDS011;44037;55.638;37.356;2023-10-13T11:51:58;3.67;;;1.58;;
58238;SDS011;44037;55.638;37.356;2023-10-13T11:57:12;2.15;;;0.57;;
58238;SDS011;44037;55.638;37.356;2023-10-13T11:59:42;3.13;;;0.50;;
58238;SDS011;44037;55.638;37.356;2023-10-13T12:02:19;2.60;;;0.60;;
58238;SDS011;44037;55.638;37.356;2023-10-13T12:05:05;2.35;;;0.70;;
58238;SDS011;44037;55.638;37.356;2023-10-13T12:07:39;4.13;;;1.10;;
58238;SDS011;44037;55.638;37.356;2023-10-13T12:10:11;1.70;;;0.60;;
58238;SDS011;44037;55.638;37.356;2023-10-13T12:12:57;4.95;;;1.05;;
58238;SDS011;44037;55.638;37.356;2023-10-13T12:15:32;3.42;;;0.88;;
58238;SDS011;44037;55.638;37.356;2023-10-13T12:18:14;2.33;;;0.70;;
58238;SDS011;44037;55.638;37.356;2023-10-13T12:20:42;2.25;;;0.70;;
58238;SDS011;44037;55.638;37.356;2023-10-13T12:23:13;2.65;;;0.77;;
58238;SDS011;44037;55.638;37.356;2023-10-13T12:25:43;4.32;;;1.02;;
58238;SDS011;44037;55.638;37.356;2023-10-13T12:28:21;3.17;;;0.60;;
58238;SDS011;44037;55.638;37.356;2023-10-13T12:30:51;1.63;;;0.60;;
58238;SDS011;44037;55.638;37.356;2023-10-13T12:33:20;1.92;;;0.63;;
58238;SDS011;44037;55.638;37.356;2023-10-13T12:36:02;1.85;;;0.70;;
58238;SDS011;44037;55.638;37.356;2023-10-13T12:38:34;2.05;;;0.75;;
58238;SDS011;44037;55.638;37.356;2023-10-13T12:41:37;3.97;;;0.70;;
58238;SDS011;44037;55.638;37.356;2023-10-13T12:44:21;3.50;;;1.02;;
58238;SDS011;44037;55.638;37.356;2023-10-13T12:47:06;4.40;;;0.75;;
58238;SDS011;44037;55.638;37.356;2023-10-13T12:49:50;2.97;;;0.90;;
58238;SDS011;44037;55.638;37.356;2023-10-13T12:52:33;4.43;;;1.63;;
58238;SDS011;44037;55.638;37.356;2023-10-13T12:55:01;1.67;;;0.73;;
58238;SDS011;44037;55.638;37.356;2023-10-13T12:57:38;2.67;;;0.90;;
58238;SDS011;44037;55.638;37.356;2023-10-13T13:00:12;4.00;;;0.65;;
58238;SDS011;44037;55.638;37.356;2023-10-13T13:02:52;2.50;;;0.98;;
58238;SDS011;44037;55.638;37.356;2023-10-13T13:05:21;1.90;;;1.05;;
58238;SDS011;44037;55.638;37.356;2023-10-13T13:07:54;3.47;;;1.25;;
58238;SDS011;44037;55.638;37.356;2023-10-13T13:10:22;3.20;;;1.10;;
58238;SDS011;44037;55.638;37.356;2023-10-13T13:13:01;3.38;;;0.88;;
58238;SDS011;44037;55.638;37.356;2023-10-13T13:15:29;3.45;;;1.02;;
58238;SDS011;44037;55.638;37.356;2023-10-13T13:17:56;5.78;;;1.00;;
58238;SDS011;44037;55.638;37.356;2023-10-13T13:20:23;6.53;;;1.95;;
58238;SDS011;44037;55.638;37.356;2023-10-13T13:22:54;4.40;;;1.10;;
58238;SDS011;44037;55.638;37.356;2023-10-13T13:25:29;4.53;;;1.00;;
58238;SDS011;44037;55.638;37.356;2023-10-13T13:27:58;2.70;;;0.77;;
58238;SDS011;44037;55.638;37.356;2023-10-13T13:30:30;2.50;;;0.88;;
58238;SDS011;44037;55.638;37.356;2023-10-13T13:33:00;6.32;;;1.20;;
58238;SDS011;44037;55.638;37.356;2023-10-13T13:35:35;2.70;;;1.07;;
58238;SDS011;44037;55.638;37.356;2023-10-13T13:38:02;2.70;;;1.27;;
58238;SDS011;44037;55.638;37.356;2023-10-13T13:40:38;5.95;;;1.80;;
58238;SDS011;44037;55.638;37.356;2023-10-13T13:43:05;4.22;;;1.20;;
58238;SDS011;44037;55.638;37.356;2023-10-13T13:45:33;7.88;;;1.23;;
58238;SDS011;44037;55.638;37.356;2023-10-13T13:48:07;4.93;;;1.35;;
58238;SDS011;44037;55.638;37.356;2023-10-13T13:50:40;3.70;;;1.10;;
58238;SDS011;44037;55.638;37.356;2023-10-13T13:53:10;6.07;;;1.10;;
58238;SDS011;44037;55.638;37.356;2023-10-13T13:55:38;4.68;;;1.40;;
58238;SDS011;44037;55.638;37.356;2023-10-13T13:58:05;5.05;;;1.20;;
58238;SDS011;44037;55.638;37.356;2023-10-13T14:00:35;8.32;;;2.30;;
58238;SDS011;44037;55.638;37.356;2023-10-13T14:03:04;4.28;;;1.70;;
58238;SDS011;44037;55.638;37.356;2023-10-13T14:05:40;5.22;;;1.55;;
58238;SDS011;44037;55.638;37.356;2023-10-13T14:08:08;4.68;;;1.90;;
58238;SDS011;44037;55.638;37.356;2023-10-13T14:10:38;6.13;;;1.27;;
58238;SDS011;44037;55.638;37.356;2023-10-13T14:13:19;9.10;;;1.80;;
58238;SDS011;44037;55.638;37.356;2023-10-13T14:15:50;5.32;;;1.80;;
58238;SDS011;44037;55.638;37.356;2023-10-13T14:18:21;4.35;;;2.05;;
58238;SDS011;44037;55.638;37.356;2023-10-13T14:20:55;8.18;;;2.28;;
58238;SDS011;44037;55.638;37.356;2023-10-13T14:23:29;4.68;;;1.50;;
58238;SDS011;44037;55.638;37.356;2023-10-13T14:25:58;3.85;;;1.58;;
58238;SDS011;44037;55.638;37.356;2023-10-13T14:28:25;6.55;;;2.40;;
58238;SDS011;44037;55.638;37.356;2023-10-13T14:31:03;6.57;;;2.10;;
58238;SDS011;44037;55.638;37.356;2023-10-13T14:33:35;7.90;;;2.03;;
58238;SDS011;44037;55.638;37.356;2023-10-13T14:36:02;6.53;;;1.30;;
58238;SDS011;44037;55.638;37.356;2023-10-13T14:38:30;4.28;;;1.63;;
58238;SDS011;44037;55.638;37.356;2023-10-13T14:40:58;7.30;;;2.30;;
58238;SDS011;44037;55.638;37.356;2023-10-13T14:43:25;5.75;;;2.10;;
58238;SDS011;44037;55.638;37.356;2023-10-13T14:45:52;9.85;;;1.90;;
58238;SDS011;44037;55.638;37.356;2023-10-13T14:48:19;9.00;;;2.40;;
58238;SDS011;44037;55.638;37.356;2023-10-13T14:50:49;6.47;;;2.17;;
58238;SDS011;44037;55.638;37.356;2023-10-13T14:53:16;10.77;;;3.97;;
58238;SDS011;44037;55.638;37.356;2023-10-13T14:55:47;11.43;;;4.25;;
58238;SDS011;44037;55.638;37.356;2023-10-13T14:58:18;6.20;;;2.10;;
58238;SDS011;44037;55.638;37.356;2023-10-13T15:00:45;7.15;;;2.60;;
58238;SDS011;44037;55.638;37.356;2023-10-13T15:03:13;5.57;;;1.98;;
58238;SDS011;44037;55.638;37.356;2023-10-13T15:05:40;7.78;;;2.70;;
58238;SDS011;44037;55.638;37.356;2023-10-13T15:08:08;9.52;;;2.40;;
58238;SDS011;44037;55.638;37.356;2023-10-13T15:10:35;8.88;;;2.47;;
58238;SDS011;44037;55.638;37.356;2023-10-13T15:13:03;8.77;;;3.33;;
58238;SDS011;44037;55.638;37.356;2023-10-13T15:15:31;7.72;;;2.67;;
58238;SDS011;44037;55.638;37.356;2023-10-13T15:18:01;8.35;;;2.88;;
58238;SDS011;44037;55.638;37.356;2023-10-13T15:20:28;11.98;;;3.10;;
58238;SDS011;44037;55.638;37.356;2023-10-13T15:22:55;7.47;;;2.92;;
58238;SDS011;44037;55.638;37.356;2023-10-13T15:25:25;10.48;;;4.10;;
58238;SDS011;44037;55.638;37.356;2023-10-13T15:27:57;9.88;;;3.30;;